KALX

Thomas C Russell Field Airport

Alexander City, Alabama, USA
METAR KALX 160035Z AUTO 20003KT 10SM SCT013 OVC036 10/10 A3003 RMK AO2 T00950095
Observed Flight Rules
Dec-16 @ 00:35 UTC (40 minutes ago) Visual Flight Rules
Wind Visibility Clouds
200° at 3 knots 10 miles
  • Scattered at 1,300' AGL
  • Overcast at 3,600' AGL
Temperatures Readings
Current 10°C / 50°F
Dewpoint 10°C / 50°F
Humidity 100%
Altimeter 30.03" Hg
Pressure 1017 hPa
Elevation 209
METAR KALX 160035Z AUTO 20003KT 10SM SCT013 OVC036 10/10 A3003 RMK AO2 T00950095
Observed Flight Rules
Dec-16 @ 00:35 UTC
(40 minutes ago)
VFR
Wind Visibility
200° at 3 knots 10 miles
Clouds
  • Scattered at 1,300' AGL
  • Overcast at 3,600' AGL
Temperature Dewpoint
10°C / 50°F 10°C / 50°F
Humidity Altimeter Pressure
100% 30.03" Hg 1017 hPa